Time;durP1;ratioP1;P1;durP2;ratioP2;P2;SDS_P1;SDS_P2;PMS_P1;PMS_P2;Temp;Humidity;BMP_temperature;BMP_pressure;BME280_temperature;BME280_humidity;BME280_pressure;Samples;Min_cycle;Max_cycle;Signal;HPM_P1;HPM_P2
2023/09/03 00:01:26;;;;;;;9.53;5.40;;;14.30;91.10;;;;;;5025583;28;20221;-55
2023/09/03 00:03:52;;;;;;;12.43;6.43;;;14.30;1.00;;;;;;5028105;28;20285;-53
2023/09/03 00:06:18;;;;;;;8.83;5.97;;;14.30;1.00;;;;;;5027116;28;20528;-53
2023/09/03 00:08:43;;;;;;;8.27;5.97;;;14.30;1.00;;;;;;5023180;28;20277;-55
2023/09/03 00:11:09;;;;;;;11.30;7.00;;;14.30;99.90;;;;;;5027213;28;20544;-55
2023/09/03 00:13:34;;;;;;;13.87;9.00;;;14.30;1.00;;;;;;5025675;28;20840;-54
2023/09/03 00:16:00;;;;;;;18.40;9.30;;;14.30;99.90;;;;;;5022619;28;20247;-54
2023/09/03 00:18:25;;;;;;;15.03;8.27;;;14.30;1.00;;;;;;5025398;28;20557;-55
2023/09/03 00:20:59;;;;;;;13.50;8.60;;;14.30;1.00;;;;;;5024458;28;20267;-53
2023/09/03 00:23:25;;;;;;;11.33;9.07;;;14.30;1.00;;;;;;5023074;28;20186;-53
2023/09/03 00:25:51;;;;;;;22.43;10.93;;;14.30;1.00;;;;;;5025689;28;20939;-53
2023/09/03 00:28:16;;;;;;;14.77;10.97;;;14.30;1.00;;;;;;5024469;28;20190;-53
2023/09/03 00:30:42;;;;;;;17.20;12.10;;;14.30;1.00;;;;;;5023885;28;20198;-54
2023/09/03 00:33:07;;;;;;;18.60;12.37;;;14.30;27.90;;;;;;5023484;28;20205;-53
2023/09/03 00:35:33;;;;;;;14.90;10.53;;;14.30;30.20;;;;;;5025423;28;20195;-54
2023/09/03 00:37:59;;;;;;;15.90;10.20;;;14.20;1.00;;;;;;5024094;28;20199;-52
2023/09/03 00:40:24;;;;;;;14.30;10.50;;;14.20;1.00;;;;;;5027098;28;20187;-55
2023/09/03 00:42:50;;;;;;;14.60;10.77;;;14.20;21.80;;;;;;5024856;28;20627;-53
2023/09/03 00:45:16;;;;;;;15.57;10.23;;;14.20;90.30;;;;;;5025167;28;20211;-53
2023/09/03 00:47:41;;;;;;;20.10;11.30;;;14.20;99.90;;;;;;5023554;28;20186;-53
2023/09/03 00:50:09;;;;;;;18.23;11.57;;;14.10;99.90;;;;;;5025394;28;20250;-53
2023/09/03 00:52:36;;;;;;;17.77;11.60;;;14.10;99.90;;;;;;5024919;28;20874;-54
2023/09/03 00:55:02;;;;;;;18.17;12.67;;;14.10;99.90;;;;;;5024550;28;20491;-52
2023/09/03 00:57:29;;;;;;;17.53;11.17;;;14.10;99.90;;;;;;5021283;28;21082;-54
2023/09/03 00:59:56;;;;;;;17.20;11.40;;;14.10;99.90;;;;;;5025150;28;20995;-54
2023/09/03 01:02:23;;;;;;;19.57;12.10;;;14.10;99.90;;;;;;5024709;28;20476;-53
2023/09/03 01:04:48;;;;;;;16.33;10.50;;;14.10;99.90;;;;;;5023931;28;20544;-55
2023/09/03 01:07:16;;;;;;;16.23;10.70;;;14.10;99.90;;;;;;5019501;28;21053;-52
2023/09/03 01:09:42;;;;;;;18.17;11.73;;;14.10;99.90;;;;;;5026894;28;20194;-55
2023/09/03 01:12:57;;;;;;;20.33;11.07;;;14.10;99.90;;;;;;5024331;28;20447;-54
2023/09/03 01:15:31;;;;;;;16.03;10.70;;;14.10;99.90;;;;;;4999743;28;20461;-54
2023/09/03 01:18:13;;;;;;;13.30;11.23;;;14.10;99.90;;;;;;5024683;28;20437;-54
2023/09/03 01:20:44;;;;;;;17.87;11.80;;;14.10;99.90;;;;;;5025289;28;20448;-53
2023/09/03 01:23:28;;;;;;;16.00;11.30;;;14.10;99.90;;;;;;5022458;28;20551;-56
2023/09/03 01:26:25;;;;;;;15.03;11.20;;;14.00;99.90;;;;;;5025919;28;20459;-54
2023/09/03 01:28:52;;;;;;;19.50;11.37;;;14.00;99.90;;;;;;5026204;28;20518;-53
2023/09/03 01:31:19;;;;;;;17.93;12.27;;;14.10;99.90;;;;;;5023025;28;20457;-55
2023/09/03 01:33:47;;;;;;;18.50;11.60;;;14.10;99.90;;;;;;5026675;28;20532;-55
2023/09/03 01:36:14;;;;;;;22.10;12.07;;;14.10;99.90;;;;;;5025754;28;20948;-54
2023/09/03 01:38:40;;;;;;;19.43;12.30;;;14.10;99.90;;;;;;5024664;28;20445;-54
2023/09/03 01:41:07;;;;;;;21.93;12.40;;;14.10;99.90;;;;;;5022783;28;20531;-54
2023/09/03 01:43:33;;;;;;;14.37;11.37;;;14.10;99.90;;;;;;5022191;28;20445;-54
2023/09/03 01:46:07;;;;;;;16.50;12.03;;;14.00;99.90;;;;;;5022739;28;20471;-51
2023/09/03 01:48:32;;;;;;;22.27;12.10;;;14.00;99.90;;;;;;5025075;28;20520;-53
2023/09/03 01:51:25;;;;;;;17.97;12.37;;;14.00;99.90;;;;;;5024456;28;20970;-55
2023/09/03 01:54:01;;;;;;;19.13;11.90;;;13.90;99.90;;;;;;5019099;28;20229;-54
2023/09/03 01:56:31;;;;;;;18.33;12.30;;;13.90;99.90;;;;;;5021248;28;20595;-52
2023/09/03 01:59:01;;;;;;;16.13;10.47;;;13.90;99.90;;;;;;5024972;28;20984;-52
2023/09/03 02:01:30;;;;;;;17.97;11.50;;;13.90;99.90;;;;;;5022476;28;20525;-54
2023/09/03 02:03:56;;;;;;;14.40;11.60;;;13.80;99.90;;;;;;5024913;28;20945;-54
2023/09/03 02:06:22;;;;;;;19.00;11.37;;;13.80;99.90;;;;;;5022420;28;20446;-54
2023/09/03 02:08:47;;;;;;;20.13;11.77;;;13.80;99.90;;;;;;5025068;28;20437;-52
2023/09/03 02:11:13;;;;;;;18.60;12.07;;;13.80;99.90;;;;;;5027859;28;20201;-53
2023/09/03 02:13:40;;;;;;;20.33;12.70;;;13.70;99.90;;;;;;5029113;28;20568;-53
2023/09/03 02:16:05;;;;;;;22.40;12.50;;;13.70;99.90;;;;;;5029211;28;20195;-54
2023/09/03 02:18:31;;;;;;;21.07;13.80;;;13.70;99.90;;;;;;5027264;28;20465;-54
2023/09/03 02:20:57;;;;;;;22.40;14.17;;;13.70;99.90;;;;;;5028501;28;20197;-52
2023/09/03 02:23:22;;;;;;;23.50;13.60;;;13.70;99.90;;;;;;5026368;28;20190;-52
2023/09/03 02:25:59;;;;;;;16.70;13.10;;;13.60;99.90;;;;;;5025854;28;20190;-53
2023/09/03 02:28:25;;;;;;;20.03;13.30;;;13.60;99.90;;;;;;5028892;28;20197;-52
2023/09/03 02:30:50;;;;;;;21.17;13.80;;;13.60;99.90;;;;;;5026797;28;20445;-51
2023/09/03 02:33:16;;;;;;;21.90;13.73;;;13.60;99.90;;;;;;5028601;28;20219;-52
2023/09/03 02:35:41;;;;;;;16.70;13.90;;;13.60;99.90;;;;;;5026346;28;20257;-52
2023/09/03 02:38:07;;;;;;;16.77;12.73;;;13.60;99.90;;;;;;5028161;28;20539;-53
2023/09/03 02:40:32;;;;;;;19.43;12.47;;;13.60;99.90;;;;;;5026169;28;20299;-53
2023/09/03 02:42:58;;;;;;;19.80;12.83;;;13.60;99.90;;;;;;5027011;28;20240;-51
2023/09/03 02:45:23;;;;;;;16.70;12.90;;;13.60;99.90;;;;;;5027108;28;20196;-53
2023/09/03 02:47:49;;;;;;;19.90;12.30;;;13.60;99.90;;;;;;5026148;28;20184;-53
2023/09/03 02:50:14;;;;;;;18.13;12.40;;;13.60;99.90;;;;;;5027320;28;20651;-53
2023/09/03 02:52:40;;;;;;;15.23;11.00;;;13.60;99.90;;;;;;5028583;28;20264;-52
2023/09/03 02:55:06;;;;;;;21.13;14.50;;;13.60;99.90;;;;;;5010486;28;20198;-52
2023/09/03 02:57:32;;;;;;;16.63;13.37;;;13.60;99.90;;;;;;5023533;28;20195;-53
2023/09/03 02:59:57;;;;;;;18.53;13.37;;;13.60;99.90;;;;;;5027189;28;20242;-52
2023/09/03 03:02:23;;;;;;;17.40;14.03;;;13.60;99.90;;;;;;5025638;28;20718;-53
2023/09/03 03:04:48;;;;;;;20.40;13.47;;;13.60;99.90;;;;;;5027587;28;20185;-52
2023/09/03 03:07:14;;;;;;;18.93;13.23;;;13.60;99.90;;;;;;5025534;28;20644;-54
2023/09/03 03:09:39;;;;;;;19.10;12.83;;;13.70;99.90;;;;;;5027224;28;20612;-53
2023/09/03 03:12:05;;;;;;;20.80;13.17;;;13.70;99.90;;;;;;5028576;28;20294;-54
2023/09/03 03:14:31;;;;;;;20.40;12.70;;;13.70;99.90;;;;;;5025045;28;20190;-54
2023/09/03 03:16:56;;;;;;;17.23;12.30;;;13.60;99.90;;;;;;5025992;28;21301;-52
2023/09/03 03:19:22;;;;;;;18.93;11.83;;;13.60;99.90;;;;;;5023490;28;20519;-54
2023/09/03 03:21:47;;;;;;;15.77;12.20;;;13.60;99.90;;;;;;5029307;28;20334;-53
2023/09/03 03:24:13;;;;;;;18.10;11.87;;;13.60;99.90;;;;;;5026007;28;20202;-54
2023/09/03 03:26:39;;;;;;;17.90;11.90;;;13.60;99.90;;;;;;5027392;28;20198;-54
2023/09/03 03:29:07;;;;;;;20.73;11.80;;;13.60;99.90;;;;;;5025916;28;20190;-53
2023/09/03 03:31:34;;;;;;;19.50;12.93;;;13.60;99.90;;;;;;5025624;28;20194;-55
2023/09/03 03:33:59;;;;;;;20.37;12.87;;;13.50;99.90;;;;;;5023705;28;20456;-52
2023/09/03 03:36:25;;;;;;;16.00;11.93;;;13.50;99.90;;;;;;5025827;28;20441;-50
2023/09/03 03:38:51;;;;;;;18.63;12.40;;;13.50;99.90;;;;;;5025781;28;20190;-54
2023/09/03 03:41:20;;;;;;;21.33;12.07;;;13.50;99.90;;;;;;5026694;28;20214;-51
2023/09/03 03:43:47;;;;;;;16.80;12.00;;;13.40;99.90;;;;;;5024311;28;20186;-53
2023/09/03 03:46:15;;;;;;;19.90;13.43;;;13.40;99.90;;;;;;5023382;28;20453;-53
2023/09/03 03:48:41;;;;;;;19.53;11.60;;;13.30;99.90;;;;;;5025522;28;20516;-52
2023/09/03 03:51:07;;;;;;;18.30;11.70;;;13.30;99.90;;;;;;5025457;28;20440;-54
2023/09/03 03:53:32;;;;;;;17.70;12.10;;;13.20;99.90;;;;;;5024880;28;20438;-52
2023/09/03 03:55:59;;;;;;;13.40;10.93;;;13.20;99.90;;;;;;5024599;28;20188;-52
2023/09/03 03:58:25;;;;;;;14.90;11.10;;;13.10;99.90;;;;;;5024480;28;20748;-52
2023/09/03 04:00:51;;;;;;;14.07;11.10;;;13.00;99.90;;;;;;5026942;28;21070;-52
2023/09/03 04:03:17;;;;;;;18.03;11.03;;;13.00;99.90;;;;;;5024732;28;21630;-52
2023/09/03 04:05:42;;;;;;;12.50;10.23;;;12.90;99.90;;;;;;5025247;28;20190;-54
2023/09/03 04:08:08;;;;;;;14.00;10.53;;;12.90;99.90;;;;;;5024385;28;20252;-53
2023/09/03 04:10:33;;;;;;;15.53;11.90;;;12.90;99.90;;;;;;5024402;28;20651;-50
2023/09/03 04:12:59;;;;;;;14.90;11.17;;;12.80;99.90;;;;;;5026402;28;20195;-54
2023/09/03 04:15:24;;;;;;;18.20;11.80;;;12.80;99.90;;;;;;5025730;28;20191;-52
2023/09/03 04:17:50;;;;;;;13.83;11.20;;;12.80;99.90;;;;;;5023302;28;20190;-53
2023/09/03 04:20:15;;;;;;;16.57;11.57;;;12.80;99.90;;;;;;5022787;28;20226;-52
2023/09/03 04:22:41;;;;;;;14.77;11.20;;;12.80;99.90;;;;;;5026815;28;20629;-52
2023/09/03 04:25:07;;;;;;;15.07;10.50;;;12.80;99.90;;;;;;5022585;28;20214;-51
2023/09/03 04:27:32;;;;;;;16.27;11.20;;;12.80;99.90;;;;;;5023953;28;20252;-53
2023/09/03 04:29:58;;;;;;;14.03;9.83;;;12.80;99.90;;;;;;5023818;28;20194;-53
2023/09/03 04:32:24;;;;;;;16.37;11.50;;;12.80;99.90;;;;;;5024503;28;20214;-52
2023/09/03 04:34:51;;;;;;;20.70;12.50;;;12.80;99.90;;;;;;5025110;28;20206;-52
2023/09/03 04:37:17;;;;;;;18.80;12.43;;;12.80;99.90;;;;;;5024738;28;20277;-52
2023/09/03 04:39:42;;;;;;;20.73;12.60;;;12.80;99.90;;;;;;5023657;28;20542;-52
2023/09/03 04:42:08;;;;;;;25.13;14.13;;;12.80;99.90;;;;;;5023203;28;20558;-53
2023/09/03 04:44:37;;;;;;;19.00;12.50;;;12.90;99.90;;;;;;5024707;28;20212;-52
2023/09/03 04:47:04;;;;;;;17.53;12.70;;;12.90;99.90;;;;;;5026136;28;20213;-53
2023/09/03 04:49:29;;;;;;;17.30;12.40;;;13.00;99.90;;;;;;5022884;28;20958;-52
2023/09/03 04:51:55;;;;;;;16.37;11.87;;;13.00;99.90;;;;;;5027131;28;20465;-53
2023/09/03 04:54:20;;;;;;;23.07;13.37;;;13.00;99.90;;;;;;5024141;28;20198;-54
2023/09/03 04:56:47;;;;;;;17.53;11.80;;;13.00;99.90;;;;;;5026465;28;20214;-52
2023/09/03 04:59:12;;;;;;;17.23;12.90;;;13.00;99.90;;;;;;5021508;28;20191;-53
2023/09/03 05:01:38;;;;;;;18.37;11.43;;;13.10;99.90;;;;;;5022716;28;20480;-52
2023/09/03 05:04:05;;;;;;;19.93;12.03;;;13.10;99.90;;;;;;5023539;28;20219;-53
2023/09/03 05:06:30;;;;;;;15.70;10.60;;;13.10;99.90;;;;;;5025301;28;20198;-51
2023/09/03 05:08:56;;;;;;;17.80;10.43;;;13.10;99.90;;;;;;5026516;28;20449;-53
2023/09/03 05:11:22;;;;;;;16.37;10.60;;;13.10;99.90;;;;;;5022779;28;20197;-51
2023/09/03 05:13:47;;;;;;;11.90;9.67;;;13.20;99.90;;;;;;5023928;28;20197;-53
2023/09/03 05:16:13;;;;;;;11.23;9.10;;;13.20;99.90;;;;;;5021809;28;20191;-52
2023/09/03 05:18:38;;;;;;;10.00;8.53;;;13.20;99.90;;;;;;5025396;28;20198;-52
2023/09/03 05:21:08;;;;;;;17.03;9.07;;;13.30;99.90;;;;;;5021777;28;20261;-52
2023/09/03 05:23:34;;;;;;;10.27;8.57;;;13.30;99.90;;;;;;5022870;28;20186;-52
2023/09/03 05:26:00;;;;;;;11.97;8.33;;;13.30;99.90;;;;;;5023800;28;20432;-54
2023/09/03 05:28:26;;;;;;;10.57;7.47;;;13.30;99.90;;;;;;5023022;28;21245;-52
2023/09/03 05:30:52;;;;;;;12.00;8.27;;;13.30;99.90;;;;;;5022070;28;20430;-54
2023/09/03 05:33:17;;;;;;;11.10;7.97;;;13.40;99.90;;;;;;5023690;28;20269;-51
2023/09/03 05:35:43;;;;;;;13.53;7.87;;;13.40;99.90;;;;;;5021685;28;20941;-53
2023/09/03 05:38:09;;;;;;;11.87;7.70;;;13.40;99.90;;;;;;5023390;28;20223;-51
2023/09/03 05:40:34;;;;;;;9.33;6.17;;;13.50;99.90;;;;;;5024778;28;20231;-52
2023/09/03 05:43:00;;;;;;;13.63;8.00;;;13.50;99.90;;;;;;5022660;28;20218;-52
2023/09/03 05:45:25;;;;;;;9.73;8.63;;;13.60;99.90;;;;;;5027625;28;20184;-52
2023/09/03 05:47:51;;;;;;;12.90;8.97;;;13.60;99.90;;;;;;5024410;28;20195;-54
2023/09/03 05:50:16;;;;;;;12.60;8.97;;;13.70;99.90;;;;;;5022854;28;20281;-52
2023/09/03 05:52:42;;;;;;;12.70;8.70;;;13.70;99.90;;;;;;5026434;28;20557;-52
2023/09/03 05:55:08;;;;;;;9.37;7.97;;;13.80;99.90;;;;;;5025510;28;20209;-53
2023/09/03 05:57:36;;;;;;;9.43;8.40;;;13.80;99.90;;;;;;5030534;28;20539;-53
2023/09/03 06:00:02;;;;;;;11.97;9.30;;;13.90;99.90;;;;;;5025545;28;20541;-54
2023/09/03 06:02:28;;;;;;;14.10;8.30;;;14.00;99.90;;;;;;5028275;28;20957;-52
2023/09/03 06:04:53;;;;;;;13.30;9.10;;;14.10;99.90;;;;;;5022928;28;20531;-54
2023/09/03 06:07:19;;;;;;;9.17;7.87;;;14.30;99.90;;;;;;5027877;28;20283;-53
2023/09/03 06:09:45;;;;;;;10.47;8.13;;;14.40;99.90;;;;;;5026143;28;20216;-52
2023/09/03 06:12:11;;;;;;;10.80;7.97;;;14.70;99.90;;;;;;5026385;28;20211;-53
2023/09/03 06:14:36;;;;;;;11.57;7.67;;;15.00;99.90;;;;;;5025964;28;20489;-54
2023/09/03 06:17:04;;;;;;;9.63;7.00;;;15.10;99.90;;;;;;5026438;28;20202;-54
2023/09/03 06:19:30;;;;;;;7.47;6.57;;;15.30;99.90;;;;;;5028600;28;20213;-54
2023/09/03 06:21:55;;;;;;;11.20;7.37;;;15.50;99.90;;;;;;5025057;28;20859;-55
2023/09/03 06:24:22;;;;;;;8.33;6.13;;;15.80;7.40;;;;;;5026004;28;20447;-55
2023/09/03 06:26:47;;;;;;;7.57;5.30;;;16.10;1.00;;;;;;5027073;28;20233;-53
2023/09/03 06:29:13;;;;;;;9.27;5.20;;;16.40;99.90;;;;;;5027218;28;20883;-52
2023/09/03 06:31:38;;;;;;;5.23;4.70;;;16.70;94.00;;;;;;5025839;28;20201;-55
2023/09/03 06:34:04;;;;;;;7.10;4.70;;;17.00;1.00;;;;;;5027363;28;20192;-56
2023/09/03 06:36:30;;;;;;;7.13;3.80;;;17.30;99.90;;;;;;5025646;28;21506;-56
2023/09/03 06:38:55;;;;;;;7.60;4.10;;;17.40;99.90;;;;;;5026224;28;20220;-55
2023/09/03 06:41:21;;;;;;;5.90;3.70;;;17.60;1.00;;;;;;5026720;28;20240;-53
2023/09/03 06:43:47;;;;;;;4.93;3.13;;;17.80;99.90;;;;;;5028961;28;20720;-56
2023/09/03 06:46:12;;;;;;;4.83;3.57;;;17.90;99.90;;;;;;5025974;28;20199;-56
2023/09/03 06:48:38;;;;;;;3.70;2.83;;;18.00;99.90;;;;;;5028418;28;20270;-53
2023/09/03 06:51:04;;;;;;;7.00;3.43;;;18.00;80.60;;;;;;5022150;28;20190;-54
2023/09/03 06:53:30;;;;;;;5.10;3.27;;;18.20;99.90;;;;;;5023987;28;20197;-55
2023/09/03 06:55:56;;;;;;;4.67;2.97;;;18.30;99.90;;;;;;5025769;28;20456;-56
2023/09/03 06:58:22;;;;;;;5.87;3.30;;;18.40;31.80;;;;;;5027182;28;20187;-55
2023/09/03 07:00:48;;;;;;;5.23;3.40;;;18.40;10.60;;;;;;5025123;28;20467;-54
2023/09/03 07:03:13;;;;;;;5.40;3.50;;;18.40;12.40;;;;;;5026104;28;20266;-52
2023/09/03 07:05:39;;;;;;;5.30;3.03;;;18.60;19.90;;;;;;5027016;28;20193;-54
2023/09/03 07:08:05;;;;;;;5.03;3.10;;;18.70;1.00;;;;;;5030351;28;20188;-55
2023/09/03 07:10:31;;;;;;;7.27;3.10;;;18.70;1.00;;;;;;5029767;28;20194;-55
2023/09/03 07:12:57;;;;;;;4.23;2.67;;;18.80;1.00;;;;;;5023103;28;20462;-55
2023/09/03 07:15:23;;;;;;;4.27;2.67;;;18.80;1.00;;;;;;5027955;28;20440;-53
2023/09/03 07:17:49;;;;;;;3.47;2.53;;;18.80;1.00;;;;;;5024232;28;20191;-55
2023/09/03 07:20:15;;;;;;;2.30;2.10;;;18.90;1.00;;;;;;5027631;28;20457;-56
2023/09/03 07:22:41;;;;;;;2.90;1.70;;;19.30;1.00;;;;;;5024169;28;20239;-56
2023/09/03 07:25:07;;;;;;;3.73;1.97;;;19.70;1.00;;;;;;5028388;28;20195;-53
2023/09/03 07:27:33;;;;;;;2.70;1.97;;;20.20;1.00;;;;;;5026798;28;20544;-56
2023/09/03 07:29:59;;;;;;;6.43;1.67;;;20.40;1.00;;;;;;5025107;28;21332;-54
2023/09/03 07:32:24;;;;;;;3.17;2.03;;;20.60;1.00;;;;;;5024305;28;20196;-55
2023/09/03 07:34:50;;;;;;;3.30;1.80;;;20.60;1.00;;;;;;5022023;28;20191;-56
2023/09/03 07:37:17;;;;;;;5.20;2.00;;;20.40;1.00;;;;;;5027539;28;20192;-55
2023/09/03 07:39:43;;;;;;;3.87;1.97;;;20.50;1.00;;;;;;5025415;28;20562;-56
2023/09/03 07:42:09;;;;;;;3.87;1.80;;;20.70;1.00;;;;;;5026662;28;20981;-51
2023/09/03 07:44:34;;;;;;;3.00;1.87;;;20.90;1.00;;;;;;5024738;28;20660;-55
2023/09/03 07:47:00;;;;;;;4.93;1.83;;;20.90;1.00;;;;;;5022978;28;20667;-55
2023/09/03 07:49:26;;;;;;;3.40;1.60;;;20.70;1.00;;;;;;5024725;28;20278;-55
2023/09/03 07:51:51;;;;;;;4.23;1.63;;;20.80;1.00;;;;;;5022540;28;20184;-55
2023/09/03 07:54:17;;;;;;;2.33;1.67;;;21.10;1.00;;;;;;5025341;28;20190;-55
2023/09/03 07:56:42;;;;;;;7.23;1.90;;;21.50;1.00;;;;;;5026404;28;20268;-55
2023/09/03 07:59:08;;;;;;;2.83;1.70;;;21.90;1.00;;;;;;5025804;28;20188;-54
2023/09/03 08:01:33;;;;;;;4.30;1.97;;;21.90;1.00;;;;;;5022780;28;20767;-55
2023/09/03 08:03:59;;;;;;;2.73;1.67;;;22.00;1.00;;;;;;5026046;28;20219;-56
2023/09/03 08:06:25;;;;;;;3.73;1.77;;;21.70;1.00;;;;;;5024778;28;20536;-56
2023/09/03 08:08:54;;;;;;;4.10;1.90;;;21.60;1.00;;;;;;5023193;28;20179;-54
2023/09/03 08:11:22;;;;;;;1.87;1.77;;;21.50;1.00;;;;;;5023687;28;20199;-55
2023/09/03 08:13:56;;;;;;;4.10;1.90;;;21.40;1.00;;;;;;5025467;28;20442;-56
2023/09/03 08:16:21;;;;;;;3.50;1.80;;;21.40;1.00;;;;;;5027488;28;20820;-54
2023/09/03 08:18:47;;;;;;;3.10;1.90;;;21.30;1.00;;;;;;5027948;28;20500;-55
2023/09/03 08:21:13;;;;;;;1.60;1.50;;;20.90;1.00;;;;;;5024674;28;20556;-56
2023/09/03 08:23:40;;;;;;;3.70;1.80;;;20.80;1.00;;;;;;5026872;28;20343;-56
2023/09/03 08:26:06;;;;;;;4.10;2.00;;;20.60;1.00;;;;;;5022879;28;20549;-56
2023/09/03 08:28:32;;;;;;;3.43;1.70;;;20.20;1.00;;;;;;5025417;28;20446;-56
2023/09/03 08:30:57;;;;;;;3.37;1.70;;;20.20;1.00;;;;;;5023812;28;20246;-55
2023/09/03 08:33:23;;;;;;;2.53;2.20;;;20.40;1.00;;;;;;5024957;28;20219;-56
2023/09/03 08:35:49;;;;;;;2.97;1.70;;;20.70;1.00;;;;;;5026436;28;20195;-57
2023/09/03 08:38:14;;;;;;;3.13;1.73;;;21.50;1.00;;;;;;5023086;28;20633;-55
2023/09/03 08:40:41;;;;;;;3.50;1.83;;;22.10;1.00;;;;;;5025691;28;20640;-57
2023/09/03 08:43:08;;;;;;;6.43;2.10;;;22.50;1.00;;;;;;5020629;28;21520;-56
2023/09/03 08:45:40;;;;;;;4.27;1.90;;;22.80;1.00;;;;;;5025774;28;20473;-56
2023/09/03 08:48:06;;;;;;;3.30;2.00;;;23.10;1.00;;;;;;5028593;28;20923;-57
2023/09/03 08:50:33;;;;;;;2.27;1.90;;;23.40;1.00;;;;;;5029904;28;20520;-54
2023/09/03 08:53:00;;;;;;;2.40;1.93;;;23.20;1.00;;;;;;5031151;28;20211;-56
2023/09/03 08:55:29;;;;;;;4.30;1.90;;;23.00;1.00;;;;;;5032335;28;20434;-56
2023/09/03 08:57:55;;;;;;;4.60;2.00;;;22.80;1.00;;;;;;5029056;28;20433;-58
2023/09/03 09:00:21;;;;;;;2.60;1.93;;;22.40;1.00;;;;;;5031761;28;20439;-57
2023/09/03 09:02:47;;;;;;;8.47;2.20;;;22.00;1.00;;;;;;5028414;28;20523;-57
2023/09/03 09:05:15;;;;;;;4.13;1.90;;;21.50;1.00;;;;;;5025443;28;20219;-56
2023/09/03 09:07:40;;;;;;;6.87;2.30;;;21.50;1.00;;;;;;5027450;28;20437;-56
2023/09/03 09:10:09;;;;;;;2.77;2.00;;;21.70;1.00;;;;;;5026488;28;20793;-58
2023/09/03 09:12:46;;;;;;;2.40;1.90;;;21.70;1.00;;;;;;5027821;28;20253;-58
2023/09/03 09:15:12;;;;;;;6.43;1.70;;;22.00;1.00;;;;;;5030336;28;20434;-55
2023/09/03 09:17:38;;;;;;;4.03;1.80;;;22.50;1.00;;;;;;5034534;28;20445;-56
2023/09/03 09:20:06;;;;;;;2.70;2.10;;;22.70;1.00;;;;;;5025079;28;20187;-56
2023/09/03 09:22:41;;;;;;;2.33;2.10;;;22.30;1.00;;;;;;5034047;28;20488;-55
2023/09/03 09:25:08;;;;;;;3.17;1.90;;;22.30;1.00;;;;;;5031164;28;20437;-56
2023/09/03 09:27:37;;;;;;;2.80;2.50;;;22.40;1.00;;;;;;5028849;28;20430;-56
2023/09/03 09:30:11;;;;;;;2.40;1.73;;;22.40;1.00;;;;;;5029064;28;20437;-56
2023/09/03 09:32:37;;;;;;;4.73;2.17;;;22.30;1.00;;;;;;5030716;28;20457;-56
2023/09/03 09:35:03;;;;;;;3.37;2.10;;;21.90;1.00;;;;;;5029686;28;21316;-56
2023/09/03 09:37:39;;;;;;;3.97;2.13;;;21.60;1.00;;;;;;5026123;28;20211;-56
2023/09/03 09:40:06;;;;;;;3.17;1.93;;;21.60;1.00;;;;;;5029213;28;20458;-55
2023/09/03 09:42:32;;;;;;;3.20;2.23;;;21.80;1.00;;;;;;5031192;28;20489;-55
2023/09/03 09:44:59;;;;;;;4.20;2.17;;;21.90;1.00;;;;;;5027231;28;20453;-56
2023/09/03 09:47:25;;;;;;;3.90;2.13;;;21.90;1.00;;;;;;5024932;28;20219;-50
2023/09/03 09:49:51;;;;;;;2.20;2.00;;;22.00;1.00;;;;;;5022429;28;20922;-52
2023/09/03 09:52:18;;;;;;;5.53;2.40;;;22.30;1.00;;;;;;5021736;28;20553;-52
2023/09/03 09:54:47;;;;;;;3.97;2.30;;;22.40;1.00;;;;;;5025024;28;20635;-52
2023/09/03 09:57:20;;;;;;;7.37;2.20;;;22.60;1.00;;;;;;5024085;28;20580;-52
2023/09/03 09:59:52;;;;;;;2.10;1.90;;;22.50;1.00;;;;;;5024239;28;20438;-52
2023/09/03 10:02:19;;;;;;;2.80;2.50;;;21.90;1.00;;;;;;5025309;28;20477;-53
2023/09/03 10:04:47;;;;;;;5.90;2.40;;;21.80;1.00;;;;;;5023025;28;20443;-52
2023/09/03 10:07:13;;;;;;;2.30;2.10;;;21.70;1.00;;;;;;5022245;28;20457;-53
2023/09/03 10:09:40;;;;;;;2.20;2.00;;;21.70;1.00;;;;;;5024100;28;20586;-54
2023/09/03 10:12:07;;;;;;;3.93;2.60;;;21.80;1.00;;;;;;5021616;28;20435;-52
2023/09/03 10:14:34;;;;;;;4.20;2.50;;;22.10;1.00;;;;;;5023140;28;20467;-54
2023/09/03 10:17:02;;;;;;;3.10;2.03;;;22.30;1.00;;;;;;5023471;28;20435;-52
2023/09/03 10:19:34;;;;;;;2.33;2.10;;;22.40;1.00;;;;;;5025916;28;20441;-52
2023/09/03 10:22:01;;;;;;;4.93;2.10;;;22.30;1.00;;;;;;5021917;28;20576;-52
2023/09/03 10:24:28;;;;;;;5.33;1.97;;;21.90;1.00;;;;;;5021846;28;20489;-51
2023/09/03 10:26:59;;;;;;;2.70;1.83;;;21.70;1.00;;;;;;5023979;28;20514;-52
2023/09/03 10:29:27;;;;;;;4.03;2.20;;;22.00;1.00;;;;;;5025054;28;20455;-52
2023/09/03 10:31:54;;;;;;;2.27;2.00;;;22.10;1.00;;;;;;5029589;28;20469;-52
2023/09/03 10:34:20;;;;;;;3.00;2.40;;;22.10;1.00;;;;;;5028236;28;20434;-52
2023/09/03 10:37:06;;;;;;;3.43;2.50;;;21.90;1.00;;;;;;5025875;28;20432;-51
2023/09/03 10:39:32;;;;;;;2.43;2.20;;;22.10;1.00;;;;;;5026379;28;20184;-52
2023/09/03 10:42:19;;;;;;;3.60;2.43;;;22.40;1.00;;;;;;5027481;28;20531;-52
2023/09/03 10:44:50;;;;;;;5.87;2.20;;;23.10;1.00;;;;;;5027083;28;20489;-52
2023/09/03 10:47:18;;;;;;;4.07;2.10;;;23.70;1.00;;;;;;5024614;28;21027;-53
2023/09/03 10:49:45;;;;;;;4.70;1.90;;;24.40;1.00;;;;;;5023878;28;20470;-50
2023/09/03 10:52:30;;;;;;;3.00;2.10;;;24.90;1.00;;;;;;5019731;28;20537;-51
2023/09/03 10:55:20;;;;;;;3.00;2.20;;;25.20;1.00;;;;;;5027291;28;20446;-52
2023/09/03 10:58:09;;;;;;;3.77;1.80;;;26.10;1.00;;;;;;5026485;28;20588;-52
2023/09/03 11:00:34;;;;;;;3.57;2.43;;;26.00;1.00;;;;;;5023648;28;20446;-52
2023/09/03 11:03:17;;;;;;;1.70;1.60;;;25.30;1.00;;;;;;5025019;28;21028;-52
2023/09/03 11:06:18;;;;;;;4.33;2.00;;;24.40;1.00;;;;;;5025506;28;20234;-53
2023/09/03 11:08:46;;;;;;;4.73;2.80;;;23.60;1.00;;;;;;5025520;28;20806;-51
2023/09/03 11:11:19;;;;;;;4.27;2.90;;;22.90;1.00;;;;;;5026063;28;20437;-54
2023/09/03 11:14:04;;;;;;;2.60;2.37;;;22.60;1.00;;;;;;5026161;28;20961;-55
2023/09/03 11:16:40;;;;;;;3.43;2.20;;;23.10;1.00;;;;;;5028245;28;20446;-54
2023/09/03 11:19:08;;;;;;;2.60;2.03;;;23.70;1.00;;;;;;5024863;28;20441;-53
2023/09/03 11:21:36;;;;;;;3.50;2.00;;;24.30;1.00;;;;;;5025615;28;20578;-54
2023/09/03 11:24:14;;;;;;;4.00;2.40;;;25.00;1.00;;;;;;5027750;28;20497;-50
2023/09/03 11:26:40;;;;;;;3.00;2.17;;;25.60;1.00;;;;;;5027091;28;20434;-50
2023/09/03 11:29:19;;;;;;;3.13;2.17;;;25.80;1.00;;;;;;5025490;28;20458;-54
2023/09/03 11:31:48;;;;;;;2.93;2.13;;;25.80;1.00;;;;;;5024595;28;20194;-51
2023/09/03 11:34:18;;;;;;;4.03;1.90;;;25.60;1.00;;;;;;5023693;28;20434;-52
2023/09/03 11:36:45;;;;;;;3.33;1.80;;;25.70;1.00;;;;;;5024253;28;21903;-51
2023/09/03 11:39:17;;;;;;;4.00;1.60;;;25.70;1.00;;;;;;5025743;28;20931;-52
2023/09/03 11:41:44;;;;;;;3.47;1.90;;;25.60;1.00;;;;;;5024793;28;20482;-52
2023/09/03 11:44:18;;;;;;;8.43;3.47;;;25.40;1.00;;;;;;5031619;28;20974;-53
2023/09/03 11:46:58;;;;;;;8.70;3.20;;;25.60;1.00;;;;;;5028225;28;20800;-52
2023/09/03 11:49:24;;;;;;;6.37;4.47;;;25.80;1.00;;;;;;5030519;28;20436;-52
2023/09/03 11:51:50;;;;;;;9.57;6.30;;;26.10;1.00;;;;;;5030923;28;20536;-52
2023/09/03 11:54:26;;;;;;;3.67;1.97;;;26.00;1.00;;;;;;5027024;28;20442;-53
2023/09/03 11:56:55;;;;;;;4.47;1.90;;;25.10;1.00;;;;;;5024253;28;20452;-53
2023/09/03 11:59:21;;;;;;;2.30;1.90;;;24.20;1.00;;;;;;5023866;28;21079;-52
2023/09/03 12:01:47;;;;;;;3.63;1.90;;;23.70;1.00;;;;;;5026822;28;20564;-53
2023/09/03 12:04:13;;;;;;;2.50;1.77;;;23.50;1.00;;;;;;5029864;28;20441;-52
2023/09/03 12:06:38;;;;;;;4.67;2.17;;;23.70;1.00;;;;;;5025328;28;20274;-53
2023/09/03 12:09:04;;;;;;;1.80;1.70;;;23.80;1.00;;;;;;5026503;28;20442;-52
2023/09/03 12:11:30;;;;;;;2.60;2.03;;;23.90;1.00;;;;;;5024810;28;20194;-53
2023/09/03 12:13:56;;;;;;;3.90;1.77;;;24.00;1.00;;;;;;5039239;28;20200;-52
2023/09/03 12:16:24;;;;;;;3.00;1.90;;;24.20;1.00;;;;;;5030752;28;20532;-53
2023/09/03 12:18:57;;;;;;;4.73;1.93;;;24.30;1.00;;;;;;5025186;28;20191;-53
2023/09/03 12:21:36;;;;;;;4.57;2.10;;;24.50;1.00;;;;;;5024496;28;20838;-51
2023/09/03 12:24:04;;;;;;;3.50;2.13;;;24.60;1.00;;;;;;5027405;28;20494;-52
2023/09/03 12:26:30;;;;;;;3.10;1.50;;;24.70;1.00;;;;;;5020550;28;20442;-52
2023/09/03 12:28:58;;;;;;;3.60;2.07;;;24.60;1.00;;;;;;5026086;28;20438;-51
2023/09/03 12:31:44;;;;;;;3.70;1.70;;;24.50;1.00;;;;;;5026847;28;20500;-53
2023/09/03 12:34:10;;;;;;;3.87;1.87;;;24.60;1.00;;;;;;5019640;28;20454;-52
2023/09/03 12:36:59;;;;;;;4.33;1.70;;;24.60;1.00;;;;;;5026211;28;20855;-53
2023/09/03 12:39:32;;;;;;;4.70;2.17;;;24.70;1.00;;;;;;5025845;28;20789;-51
2023/09/03 12:41:59;;;;;;;2.80;2.00;;;24.80;1.00;;;;;;5029055;28;21024;-51
2023/09/03 12:44:26;;;;;;;3.80;1.80;;;25.00;1.00;;;;;;5026567;28;20777;-51
2023/09/03 12:46:52;;;;;;;2.07;1.70;;;25.10;1.00;;;;;;5024418;28;20438;-51